createdAt,value
2023-03-27T00:02:23.326Z,101345.78
2023-03-27T00:04:50.824Z,101344.00
2023-03-27T00:07:20.023Z,101360.53
2023-03-27T00:09:47.316Z,101364.00
2023-03-27T00:12:14.819Z,101357.97
2023-03-27T00:14:42.032Z,101357.97
2023-03-27T00:17:11.095Z,101362.25
2023-03-27T00:19:38.747Z,101368.25
2023-03-27T00:22:06.236Z,101366.50
2023-03-27T00:24:34.428Z,101373.41
2023-03-27T00:27:01.668Z,101367.25
2023-03-27T00:29:29.357Z,101369.84
2023-03-27T00:31:56.643Z,101371.56
2023-03-27T00:34:23.827Z,101374.13
2023-03-27T00:36:53.925Z,101377.50
2023-03-27T00:39:21.150Z,101377.34
2023-03-27T00:41:49.061Z,101374.75
2023-03-27T00:44:25.905Z,101381.75
2023-03-27T00:46:55.432Z,101386.97
2023-03-27T00:49:25.145Z,101392.16
2023-03-27T00:51:53.868Z,101393.19
2023-03-27T00:54:30.181Z,101389.81
2023-03-27T00:57:01.556Z,101377.66
2023-03-27T00:59:32.308Z,101391.53
2023-03-27T01:02:02.636Z,101400.16
2023-03-27T01:04:31.432Z,101395.72
2023-03-27T01:07:00.215Z,101398.25
2023-03-27T01:09:27.905Z,101397.25
2023-03-27T01:12:19.845Z,101396.34
2023-03-27T01:14:59.794Z,101405.94
2023-03-27T01:17:50.339Z,101401.69
2023-03-27T01:20:18.084Z,101401.75
2023-03-27T01:23:00.900Z,101406.22
2023-03-27T01:25:45.778Z,101407.03
2023-03-27T01:28:34.598Z,101402.59
2023-03-27T01:31:21.318Z,101407.66
2023-03-27T01:34:15.350Z,101400.63
2023-03-27T01:36:52.038Z,101411.72
2023-03-27T01:39:19.260Z,101406.31
2023-03-27T01:42:04.225Z,101410.56
2023-03-27T01:44:44.896Z,101403.56
2023-03-27T01:47:28.361Z,101415.63
2023-03-27T01:50:11.255Z,101411.19
2023-03-27T01:52:44.560Z,101399.00
2023-03-27T01:55:19.375Z,101414.63
2023-03-27T01:58:00.656Z,101420.72
2023-03-27T02:01:04.023Z,101417.25
2023-03-27T02:03:23.001Z,101409.47
2023-03-27T02:06:03.436Z,101432.16
2023-03-27T02:08:35.227Z,101438.31
2023-03-27T02:11:26.780Z,101437.69
2023-03-27T02:14:11.813Z,101453.41
2023-03-27T02:16:46.302Z,101470.63
2023-03-27T02:19:20.248Z,101468.47
2023-03-27T02:21:48.251Z,101451.34
2023-03-27T02:24:19.526Z,101468.97
2023-03-27T02:26:53.454Z,101452.94
2023-03-27T02:29:52.309Z,101446.50
2023-03-27T02:32:56.647Z,101443.66
2023-03-27T02:35:40.984Z,101453.94
2023-03-27T02:38:23.724Z,101445.91
2023-03-27T02:40:57.565Z,101449.22
2023-03-27T02:44:11.183Z,101449.09
2023-03-27T02:47:07.706Z,101455.91
2023-03-27T02:49:51.484Z,101453.19
2023-03-27T02:52:26.713Z,101466.03
2023-03-27T02:55:06.572Z,101465.00
2023-03-27T02:57:41.924Z,101465.75
2023-03-27T03:00:45.085Z,101469.75
2023-03-27T03:03:44.636Z,101466.94
2023-03-27T03:06:32.116Z,101473.63
2023-03-27T03:09:04.657Z,101471.72
2023-03-27T03:11:37.689Z,101476.03
2023-03-27T03:14:12.737Z,101480.25
2023-03-27T03:16:40.262Z,101491.53
2023-03-27T03:19:07.807Z,101498.47
2023-03-27T03:21:36.658Z,101493.34
2023-03-27T03:24:04.177Z,101492.59
2023-03-27T03:26:32.222Z,101494.44
2023-03-27T03:29:01.688Z,101498.81
2023-03-27T03:31:44.282Z,101498.16
2023-03-27T03:34:16.704Z,101495.63
2023-03-27T03:36:49.384Z,101495.75
2023-03-27T03:39:22.335Z,101503.72
2023-03-27T03:41:50.795Z,101508.16
2023-03-27T03:44:19.218Z,101507.34
2023-03-27T03:46:46.669Z,101508.22
2023-03-27T03:49:20.396Z,101516.19
2023-03-27T03:51:47.984Z,101526.69
2023-03-27T03:54:31.669Z,101530.97
2023-03-27T03:57:00.162Z,101526.34
2023-03-27T03:59:27.705Z,101525.09
2023-03-27T04:02:30.207Z,101527.34
2023-03-27T04:05:08.616Z,101519.97
2023-03-27T04:07:37.264Z,101522.28
2023-03-27T04:10:19.592Z,101525.56
2023-03-27T04:12:48.526Z,101535.94
2023-03-27T04:15:30.266Z,101534.22
2023-03-27T04:18:14.985Z,101538.53
2023-03-27T04:20:42.642Z,101541.22
2023-03-27T04:23:13.962Z,101535.16
2023-03-27T04:25:41.470Z,101555.84
2023-03-27T04:28:16.419Z,101558.44
2023-03-27T04:30:50.357Z,101549.59
2023-03-27T04:33:46.839Z,101558.13
2023-03-27T04:36:37.536Z,101562.31
2023-03-27T04:39:10.758Z,101562.13
2023-03-27T04:41:38.738Z,101566.44
2023-03-27T04:44:06.416Z,101564.47
2023-03-27T04:46:34.495Z,101574.88
2023-03-27T04:49:07.663Z,101568.88
2023-03-27T04:51:49.215Z,101573.28
2023-03-27T04:54:18.895Z,101578.38
2023-03-27T04:56:47.173Z,101574.97
2023-03-27T04:59:18.583Z,101580.41
2023-03-27T05:01:57.659Z,101586.78
2023-03-27T05:04:46.026Z,101588.13
2023-03-27T05:07:21.387Z,101602.56
2023-03-27T05:09:49.008Z,101589.94
2023-03-27T05:12:16.553Z,101591.97
2023-03-27T05:14:53.053Z,101591.53
2023-03-27T05:17:45.031Z,101606.47
2023-03-27T05:20:17.013Z,101608.38
2023-03-27T05:22:44.976Z,101607.81
2023-03-27T05:25:27.561Z,101614.22
2023-03-27T05:27:56.047Z,101615.34
2023-03-27T05:30:27.106Z,101623.34
2023-03-27T05:33:14.633Z,101635.59
2023-03-27T05:35:42.990Z,101641.13
2023-03-27T05:38:12.467Z,101636.03
2023-03-27T05:41:06.508Z,101637.69
2023-03-27T05:43:38.822Z,101646.31
2023-03-27T05:46:06.512Z,101647.00
2023-03-27T05:48:34.860Z,101650.31
2023-03-27T05:51:06.069Z,101652.81
2023-03-27T05:53:37.031Z,101650.91
2023-03-27T05:56:18.376Z,101656.97
2023-03-27T05:58:58.203Z,101653.41
2023-03-27T06:01:26.922Z,101651.66
2023-03-27T06:03:56.910Z,101661.31
2023-03-27T06:06:29.623Z,101658.97
2023-03-27T06:08:59.465Z,101666.38
2023-03-27T06:11:44.943Z,101672.13
2023-03-27T06:14:12.267Z,101674.25
2023-03-27T06:17:01.159Z,101679.19
2023-03-27T06:19:45.397Z,101678.50
2023-03-27T06:22:12.931Z,101680.34
2023-03-27T06:24:41.611Z,101681.19
2023-03-27T06:27:10.993Z,101687.94
2023-03-27T06:29:41.770Z,101696.72
2023-03-27T06:32:09.695Z,101689.03
2023-03-27T06:34:47.760Z,101690.16
2023-03-27T06:37:55.531Z,101687.09
2023-03-27T06:40:28.237Z,101691.81
2023-03-27T06:43:10.105Z,101691.28
2023-03-27T06:45:50.951Z,101704.75
2023-03-27T06:48:33.151Z,101694.75
2023-03-27T06:51:03.552Z,101697.63
2023-03-27T06:53:35.534Z,101696.13
2023-03-27T06:56:05.331Z,101713.94
2023-03-27T06:58:52.614Z,101714.53
2023-03-27T07:01:25.967Z,101709.97
2023-03-27T07:04:22.557Z,101712.69
2023-03-27T07:07:08.562Z,101705.56
2023-03-27T07:09:40.151Z,101710.16
2023-03-27T07:12:11.787Z,101718.06
2023-03-27T07:14:41.142Z,101717.53
2023-03-27T07:17:09.556Z,101720.28
2023-03-27T07:19:49.195Z,101732.50
2023-03-27T07:22:18.391Z,101732.25
2023-03-27T07:24:45.753Z,101741.88
2023-03-27T07:27:12.990Z,101742.66
2023-03-27T07:29:41.652Z,101734.91
2023-03-27T07:32:11.137Z,101736.00
2023-03-27T07:34:42.451Z,101739.75
2023-03-27T07:37:14.515Z,101735.69
2023-03-27T07:39:59.039Z,101741.88
2023-03-27T07:42:28.261Z,101738.94
2023-03-27T07:45:04.322Z,101737.94
2023-03-27T07:47:32.244Z,101742.06
2023-03-27T07:49:59.828Z,101737.53
2023-03-27T07:52:27.423Z,101743.91
2023-03-27T07:54:59.617Z,101748.13
2023-03-27T07:57:59.321Z,101745.31
2023-03-27T08:00:32.546Z,101742.09
2023-03-27T08:03:11.053Z,101745.88
2023-03-27T08:05:46.221Z,101751.69
2023-03-27T08:08:16.976Z,101756.44
2023-03-27T08:10:48.224Z,101753.72
2023-03-27T08:13:18.385Z,101758.19
2023-03-27T08:15:46.095Z,101758.81
2023-03-27T08:18:25.506Z,101756.53
2023-03-27T08:20:58.467Z,101769.34
2023-03-27T08:23:31.330Z,101782.88
2023-03-27T08:26:16.912Z,101774.09
2023-03-27T08:28:54.107Z,101785.63
2023-03-27T08:31:24.182Z,101784.16
2023-03-27T08:33:53.987Z,101781.94
2023-03-27T08:36:25.619Z,101774.84
2023-03-27T08:38:55.399Z,101785.63
2023-03-27T08:41:42.496Z,101785.28
2023-03-27T08:44:19.931Z,101783.13
2023-03-27T08:46:56.179Z,101792.63
2023-03-27T08:49:29.961Z,101792.28
2023-03-27T08:52:33.134Z,101790.44
2023-03-27T08:55:18.767Z,101811.31
2023-03-27T08:57:56.446Z,101807.59
2023-03-27T09:00:33.717Z,101800.94
2023-03-27T09:03:27.896Z,101802.13
2023-03-27T09:06:10.414Z,101811.97
2023-03-27T09:08:50.563Z,101831.28
2023-03-27T09:11:27.921Z,101831.56
2023-03-27T09:14:10.466Z,101836.75
2023-03-27T09:16:49.684Z,101841.13
2023-03-27T09:19:49.331Z,101838.63
2023-03-27T09:22:25.852Z,101837.84
2023-03-27T09:25:19.921Z,101836.38
2023-03-27T09:27:49.793Z,101841.44
2023-03-27T09:30:41.046Z,101840.41
2023-03-27T09:33:14.644Z,101842.19
2023-03-27T09:35:44.713Z,101851.84
2023-03-27T09:38:24.570Z,101851.03
2023-03-27T09:41:01.624Z,101857.22
2023-03-27T09:43:46.005Z,101856.88
2023-03-27T09:46:19.434Z,101864.13
2023-03-27T09:49:20.149Z,101863.84
2023-03-27T09:51:59.550Z,101855.13
2023-03-27T09:54:59.605Z,101861.72
2023-03-27T09:57:37.422Z,101855.06
2023-03-27T10:00:25.060Z,101867.03
2023-03-27T10:03:01.575Z,101875.00
2023-03-27T10:05:31.607Z,101874.63
2023-03-27T10:07:59.816Z,101883.16
2023-03-27T10:10:55.119Z,101883.00
2023-03-27T10:13:43.871Z,101868.50
2023-03-27T10:16:11.487Z,101877.16
2023-03-27T10:18:53.621Z,101889.97
2023-03-27T10:21:40.096Z,101901.09
2023-03-27T10:24:21.138Z,101889.34
2023-03-27T10:27:18.982Z,101899.13
2023-03-27T10:30:33.138Z,101890.31
2023-03-27T10:33:36.795Z,101895.41
2023-03-27T10:36:27.706Z,101898.44
2023-03-27T10:39:00.987Z,101910.28
2023-03-27T10:41:41.239Z,101899.72
2023-03-27T10:44:17.978Z,101909.72
2023-03-27T10:46:52.847Z,101914.91
2023-03-27T10:49:30.328Z,101909.13
2023-03-27T10:52:15.296Z,101914.81
2023-03-27T10:55:00.929Z,101918.59
2023-03-27T10:57:31.075Z,101913.97
2023-03-27T11:00:22.619Z,101919.66
2023-03-27T11:03:23.967Z,101918.94
2023-03-27T11:06:00.769Z,101921.94
2023-03-27T11:08:42.847Z,101910.78
2023-03-27T11:11:23.164Z,101918.56
2023-03-27T11:13:54.291Z,101922.19
2023-03-27T11:16:43.592Z,101928.50
2023-03-27T11:19:49.841Z,101939.06
2023-03-27T11:22:44.627Z,101941.53
2023-03-27T11:25:27.118Z,101947.34
2023-03-27T11:28:18.450Z,101945.69
2023-03-27T11:30:53.154Z,101944.88
2023-03-27T11:33:37.849Z,101946.75
2023-03-27T11:36:17.673Z,101939.03
2023-03-27T11:39:13.648Z,101950.84
2023-03-27T11:41:51.565Z,101959.91
2023-03-27T11:44:20.304Z,101961.97
2023-03-27T11:47:37.415Z,101964.47
2023-03-27T11:50:23.328Z,101956.97
2023-03-27T11:53:19.786Z,101954.53
2023-03-27T11:56:24.782Z,101971.34
2023-03-27T11:59:37.826Z,101965.63
2023-03-27T12:02:17.968Z,101976.25
2023-03-27T12:05:00.679Z,101978.00
2023-03-27T12:08:05.029Z,101981.09
2023-03-27T12:10:37.569Z,101976.03
2023-03-27T12:14:01.229Z,101984.06
2023-03-27T12:17:02.234Z,101988.81
2023-03-27T12:20:06.882Z,101992.09
2023-03-27T12:23:17.060Z,102002.38
2023-03-27T12:26:31.190Z,102009.50
2023-03-27T12:29:58.205Z,102015.88
2023-03-27T12:32:47.809Z,102015.22
2023-03-27T12:35:23.307Z,102018.31
2023-03-27T12:37:59.751Z,102022.22
2023-03-27T12:40:37.617Z,102005.84
2023-03-27T12:43:11.078Z,102018.31
2023-03-27T12:45:50.951Z,102016.16
2023-03-27T12:48:21.248Z,102018.19
2023-03-27T12:50:55.368Z,102018.09
2023-03-27T12:53:26.644Z,102011.97
2023-03-27T12:56:16.427Z,102022.69
2023-03-27T12:58:51.162Z,102013.03
2023-03-27T13:01:51.572Z,102021.69
2023-03-27T13:04:40.384Z,102015.06
2023-03-27T13:07:35.965Z,102017.47
2023-03-27T13:10:12.999Z,102018.06
2023-03-27T13:13:15.813Z,102013.13
2023-03-27T13:15:52.759Z,102027.66
2023-03-27T13:19:00.914Z,102031.03
2023-03-27T13:21:31.531Z,102027.38
2023-03-27T13:24:32.970Z,102010.84
2023-03-27T13:27:44.000Z,102015.97
2023-03-27T13:30:48.398Z,102030.25
2023-03-27T13:33:39.971Z,102010.84
2023-03-27T13:36:13.425Z,102001.91
2023-03-27T13:39:04.603Z,102022.41
2023-03-27T13:41:44.405Z,102030.28
2023-03-27T13:44:28.457Z,102031.75
2023-03-27T13:47:28.264Z,102028.81
2023-03-27T13:50:35.172Z,102042.06
2023-03-27T13:53:12.732Z,102034.72
2023-03-27T13:56:32.500Z,102049.09
2023-03-27T13:59:46.776Z,102047.56
2023-03-27T14:02:58.377Z,102054.53
2023-03-27T14:05:57.127Z,102043.06
2023-03-27T14:08:42.124Z,102054.41
2023-03-27T14:11:38.769Z,102058.09
2023-03-27T14:14:33.097Z,102055.47
2023-03-27T14:17:37.994Z,102051.78
2023-03-27T14:20:24.054Z,102056.97
2023-03-27T14:23:00.895Z,102054.88
2023-03-27T14:25:40.434Z,102061.72
2023-03-27T14:28:45.551Z,102064.44
2023-03-27T14:31:19.177Z,102056.69
2023-03-27T14:34:09.841Z,102067.00
2023-03-27T14:36:44.300Z,102067.69
2023-03-27T14:39:22.124Z,102075.28
2023-03-27T14:41:58.326Z,102064.81
2023-03-27T14:44:31.408Z,102075.41
2023-03-27T14:47:12.235Z,102069.44
2023-03-27T14:49:49.250Z,102070.38
2023-03-27T14:52:35.411Z,102073.19
2023-03-27T14:55:34.633Z,102088.88
2023-03-27T14:58:25.702Z,102092.72
2023-03-27T15:01:00.014Z,102090.72
2023-03-27T15:03:34.855Z,102087.19
2023-03-27T15:06:13.586Z,102090.78
2023-03-27T15:08:52.293Z,102104.75
2023-03-27T15:11:40.317Z,102100.94
2023-03-27T15:14:25.956Z,102101.31
2023-03-27T15:17:15.179Z,102119.34
2023-03-27T15:19:49.601Z,102112.88
2023-03-27T15:22:34.269Z,102118.56
2023-03-27T15:25:11.683Z,102116.53
2023-03-27T15:27:46.585Z,102102.38
2023-03-27T15:30:51.518Z,102113.59
2023-03-27T15:34:03.465Z,102114.38
2023-03-27T15:36:34.337Z,102119.47
2023-03-27T15:39:04.199Z,102118.44
2023-03-27T15:41:38.385Z,102116.47
2023-03-27T15:44:11.328Z,102116.19
2023-03-27T15:46:55.330Z,102122.88
2023-03-27T15:49:29.711Z,102120.19
2023-03-27T15:51:58.975Z,102123.56
2023-03-27T15:54:37.250Z,102123.78
2023-03-27T15:57:14.600Z,102126.47
2023-03-27T15:59:52.971Z,102121.16
2023-03-27T16:02:24.540Z,102130.66
2023-03-27T16:04:55.526Z,102128.78
2023-03-27T16:07:30.229Z,102139.94
2023-03-27T16:10:03.079Z,102156.50
2023-03-27T16:12:49.524Z,102146.84
2023-03-27T16:15:37.896Z,102151.94
2023-03-27T16:18:22.910Z,102144.59
2023-03-27T16:20:50.461Z,102145.13
2023-03-27T16:23:17.799Z,102153.69
2023-03-27T16:25:45.343Z,102154.31
2023-03-27T16:28:16.729Z,102147.88
2023-03-27T16:30:45.851Z,102154.84
2023-03-27T16:33:16.254Z,102151.19
2023-03-27T16:35:45.650Z,102159.03
2023-03-27T16:38:16.659Z,102170.34
2023-03-27T16:40:44.764Z,102158.31
2023-03-27T16:43:12.511Z,102160.06
2023-03-27T16:45:40.083Z,102165.22
2023-03-27T16:48:08.705Z,102169.63
2023-03-27T16:50:36.611Z,102160.22
2023-03-27T16:53:04.522Z,102175.97
2023-03-27T16:55:31.880Z,102172.44
2023-03-27T16:57:59.518Z,102175.84
2023-03-27T17:00:27.661Z,102175.69
2023-03-27T17:02:54.953Z,102179.06
2023-03-27T17:05:22.374Z,102179.75
2023-03-27T17:07:49.790Z,102187.44
2023-03-27T17:10:17.348Z,102190.81
2023-03-27T17:12:44.594Z,102192.31
2023-03-27T17:15:11.904Z,102197.25
2023-03-27T17:17:39.973Z,102198.81
2023-03-27T17:20:08.041Z,102203.81
2023-03-27T17:22:35.693Z,102198.22
2023-03-27T17:25:05.659Z,102215.34
2023-03-27T17:27:33.884Z,102212.50
2023-03-27T17:30:03.930Z,102235.78
2023-03-27T17:32:31.595Z,102213.78
2023-03-27T17:34:59.105Z,102225.78
2023-03-27T17:37:27.289Z,102218.69
2023-03-27T17:39:54.603Z,102226.38
2023-03-27T17:42:22.187Z,102222.78
2023-03-27T17:44:49.406Z,102228.78
2023-03-27T17:47:16.701Z,102221.69
2023-03-27T17:49:45.085Z,102228.53
2023-03-27T17:52:13.940Z,102226.59
2023-03-27T17:54:41.648Z,102223.84
2023-03-27T17:57:09.258Z,102221.16
2023-03-27T17:59:48.678Z,102222.88
2023-03-27T18:02:21.570Z,102208.19
2023-03-27T18:04:52.150Z,102221.38
2023-03-27T18:07:20.943Z,102236.16
2023-03-27T18:09:49.285Z,102236.94
2023-03-27T18:12:19.522Z,102242.94
2023-03-27T18:14:46.871Z,102237.50
2023-03-27T18:17:15.987Z,102240.78
2023-03-27T18:19:43.315Z,102246.78
2023-03-27T18:22:11.359Z,102248.34
2023-03-27T18:24:38.740Z,102248.13
2023-03-27T18:27:06.076Z,102249.69
2023-03-27T18:29:34.437Z,102250.34
2023-03-27T18:32:01.730Z,102257.16
2023-03-27T18:34:29.020Z,102251.72
2023-03-27T18:36:56.867Z,102246.34
2023-03-27T18:39:24.616Z,102257.53
2023-03-27T18:41:53.292Z,102252.97
2023-03-27T18:44:21.569Z,102248.50
2023-03-27T18:46:48.835Z,102258.84
2023-03-27T18:49:24.886Z,102255.31
2023-03-27T18:51:52.901Z,102258.00
2023-03-27T18:54:20.419Z,102265.03
2023-03-27T18:56:48.762Z,102257.31
2023-03-27T18:59:16.188Z,102261.03
2023-03-27T19:01:44.184Z,102265.53
2023-03-27T19:04:11.692Z,102261.19
2023-03-27T19:06:39.226Z,102268.94
2023-03-27T19:09:06.583Z,102267.97
2023-03-27T19:11:33.980Z,102271.22
2023-03-27T19:14:08.025Z,102271.06
2023-03-27T19:16:44.373Z,102274.25
2023-03-27T19:19:12.306Z,102283.63
2023-03-27T19:21:52.115Z,102290.47
2023-03-27T19:24:45.709Z,102290.22
2023-03-27T19:27:23.664Z,102279.78
2023-03-27T19:29:53.406Z,102280.69
2023-03-27T19:32:21.440Z,102279.88
2023-03-27T19:34:48.979Z,102292.09
2023-03-27T19:37:16.925Z,102286.00
2023-03-27T19:39:44.187Z,102277.34
2023-03-27T19:42:11.652Z,102276.44
2023-03-27T19:44:39.753Z,102289.56
2023-03-27T19:47:07.703Z,102284.53
2023-03-27T19:49:40.719Z,102285.59
2023-03-27T19:52:27.804Z,102288.34
2023-03-27T19:54:55.380Z,102286.63
2023-03-27T19:57:25.092Z,102282.16
2023-03-27T19:59:55.301Z,102289.00
2023-03-27T20:02:22.580Z,102316.72
2023-03-27T20:04:50.031Z,102327.81
2023-03-27T20:07:17.546Z,102314.25
2023-03-27T20:09:45.186Z,102327.38
2023-03-27T20:12:12.688Z,102344.03
2023-03-27T20:14:41.117Z,102335.44
2023-03-27T20:17:21.336Z,102306.63
2023-03-27T20:19:55.735Z,102311.25
2023-03-27T20:22:23.176Z,102309.44
2023-03-27T20:24:50.424Z,102303.25
2023-03-27T20:27:19.957Z,102306.59
2023-03-27T20:29:47.880Z,102310.00
2023-03-27T20:32:15.345Z,102303.56
2023-03-27T20:34:42.913Z,102312.81
2023-03-27T20:37:12.120Z,102310.00
2023-03-27T20:39:47.986Z,102308.88
2023-03-27T20:42:18.140Z,102319.09
2023-03-27T20:44:47.251Z,102312.91
2023-03-27T20:47:15.271Z,102307.59
2023-03-27T20:49:49.595Z,102318.81
2023-03-27T20:52:19.044Z,102305.00
2023-03-27T20:54:47.991Z,102319.00
2023-03-27T20:57:17.854Z,102315.66
2023-03-27T20:59:47.550Z,102314.22
2023-03-27T21:02:18.874Z,102322.13
2023-03-27T21:04:46.732Z,102316.19
2023-03-27T21:07:15.817Z,102314.69
2023-03-27T21:09:45.481Z,102319.19
2023-03-27T21:12:13.109Z,102329.06
2023-03-27T21:14:40.364Z,102328.31
2023-03-27T21:17:07.702Z,102327.59
2023-03-27T21:19:34.904Z,102330.38
2023-03-27T21:22:03.794Z,102326.16
2023-03-27T21:24:31.198Z,102337.47
2023-03-27T21:27:00.053Z,102334.94
2023-03-27T21:29:27.512Z,102329.75
2023-03-27T21:31:54.868Z,102337.56
2023-03-27T21:34:22.616Z,102336.66
2023-03-27T21:36:49.851Z,102336.56
2023-03-27T21:39:17.481Z,102337.47
2023-03-27T21:41:44.746Z,102341.78
2023-03-27T21:44:12.260Z,102350.50
2023-03-27T21:46:39.760Z,102333.00
2023-03-27T21:49:07.080Z,102339.91
2023-03-27T21:51:34.319Z,102341.59
2023-03-27T21:54:01.715Z,102348.72
2023-03-27T21:56:28.972Z,102348.88
2023-03-27T21:58:57.529Z,102354.34
2023-03-27T22:01:26.106Z,102350.13
2023-03-27T22:03:53.579Z,102357.06
2023-03-27T22:06:21.025Z,102359.47
2023-03-27T22:08:48.208Z,102360.13
2023-03-27T22:11:15.511Z,102353.81
2023-03-27T22:13:43.858Z,102353.63
2023-03-27T22:16:14.570Z,102352.75
2023-03-27T22:18:42.334Z,102339.63
2023-03-27T22:21:18.654Z,102342.25
2023-03-27T22:23:46.223Z,102367.66
2023-03-27T22:26:13.534Z,102379.34
2023-03-27T22:28:40.813Z,102360.47
2023-03-27T22:31:08.690Z,102366.00
2023-03-27T22:33:37.132Z,102363.69
2023-03-27T22:36:05.998Z,102357.75
2023-03-27T22:38:33.620Z,102368.16
2023-03-27T22:41:01.494Z,102362.06
2023-03-27T22:43:29.473Z,102368.06
2023-03-27T22:45:57.654Z,102365.31
2023-03-27T22:48:25.261Z,102370.44
2023-03-27T22:50:56.602Z,102376.38
2023-03-27T22:53:25.251Z,102377.97
2023-03-27T22:55:54.919Z,102388.31
2023-03-27T22:58:23.574Z,102374.47
2023-03-27T23:00:52.928Z,102381.41
2023-03-27T23:03:21.331Z,102387.50
2023-03-27T23:05:50.331Z,102390.09
2023-03-27T23:08:19.906Z,102381.41
2023-03-27T23:10:55.397Z,102387.41
2023-03-27T23:13:23.455Z,102386.41
2023-03-27T23:15:51.864Z,102384.63
2023-03-27T23:18:24.876Z,102390.66
2023-03-27T23:20:57.351Z,102396.69
2023-03-27T23:23:26.482Z,102403.66
2023-03-27T23:25:54.901Z,102413.28
2023-03-27T23:28:22.224Z,102415.06
2023-03-27T23:30:59.201Z,102429.09
2023-03-27T23:33:27.780Z,102430.16
2023-03-27T23:36:06.682Z,102424.06
2023-03-27T23:38:34.499Z,102427.31
2023-03-27T23:41:03.278Z,102422.72
2023-03-27T23:43:31.301Z,102427.84
2023-03-27T23:45:59.684Z,102430.34
2023-03-27T23:48:31.076Z,102424.16
2023-03-27T23:50:58.388Z,102427.56
2023-03-27T23:53:27.457Z,102430.16
2023-03-27T23:55:57.050Z,102435.38
2023-03-27T23:58:28.650Z,102430.09
